sensor_id;sensor_type;location;lat;lon;timestamp;temperature;humidity
11107;DHT22;5607;48.302;14.294;2023-04-03T00:00:23;6.90;99.90
11107;DHT22;5607;48.302;14.294;2023-04-03T00:03:10;7.00;99.90
11107;DHT22;5607;48.302;14.294;2023-04-03T00:05:56;7.00;99.90
11107;DHT22;5607;48.302;14.294;2023-04-03T00:08:43;6.90;99.90
11107;DHT22;5607;48.302;14.294;2023-04-03T00:11:30;6.80;99.90
11107;DHT22;5607;48.302;14.294;2023-04-03T00:14:16;6.70;99.90
11107;DHT22;5607;48.302;14.294;2023-04-03T00:17:03;6.80;99.90
11107;DHT22;5607;48.302;14.294;2023-04-03T00:19:50;6.80;99.90
11107;DHT22;5607;48.302;14.294;2023-04-03T00:22:36;6.80;99.90
11107;DHT22;5607;48.302;14.294;2023-04-03T00:25:23;6.80;99.90
11107;DHT22;5607;48.302;14.294;2023-04-03T00:28:11;7.00;99.90
11107;DHT22;5607;48.302;14.294;2023-04-03T00:30:58;7.10;99.90
11107;DHT22;5607;48.302;14.294;2023-04-03T00:33:44;7.20;99.90
11107;DHT22;5607;48.302;14.294;2023-04-03T00:36:32;7.20;99.90
11107;DHT22;5607;48.302;14.294;2023-04-03T00:39:19;7.10;99.90
11107;DHT22;5607;48.302;14.294;2023-04-03T00:42:05;7.10;99.90
11107;DHT22;5607;48.302;14.294;2023-04-03T00:47:42;6.90;99.90
11107;DHT22;5607;48.302;14.294;2023-04-03T00:50:28;6.80;99.90
11107;DHT22;5607;48.302;14.294;2023-04-03T00:53:17;6.90;99.90
11107;DHT22;5607;48.302;14.294;2023-04-03T00:56:09;7.00;99.90
11107;DHT22;5607;48.302;14.294;2023-04-03T00:59:06;7.00;99.90
11107;DHT22;5607;48.302;14.294;2023-04-03T01:01:58;7.10;99.90
11107;DHT22;5607;48.302;14.294;2023-04-03T01:04:45;7.10;99.90
11107;DHT22;5607;48.302;14.294;2023-04-03T01:07:33;7.10;99.90
11107;DHT22;5607;48.302;14.294;2023-04-03T01:10:21;7.10;99.90
11107;DHT22;5607;48.302;14.294;2023-04-03T01:13:25;7.20;99.90
11107;DHT22;5607;48.302;14.294;2023-04-03T01:16:14;7.30;99.90
11107;DHT22;5607;48.302;14.294;2023-04-03T01:19:01;7.30;99.90
11107;DHT22;5607;48.302;14.294;2023-04-03T01:25:12;7.10;99.90
11107;DHT22;5607;48.302;14.294;2023-04-03T01:27:59;7.10;99.90
11107;DHT22;5607;48.302;14.294;2023-04-03T01:33:54;7.00;99.90
11107;DHT22;5607;48.302;14.294;2023-04-03T01:36:41;7.10;99.90
11107;DHT22;5607;48.302;14.294;2023-04-03T01:39:27;7.10;99.90
11107;DHT22;5607;48.302;14.294;2023-04-03T01:42:14;7.10;99.90
11107;DHT22;5607;48.302;14.294;2023-04-03T01:45:02;7.10;99.90
11107;DHT22;5607;48.302;14.294;2023-04-03T01:47:49;7.10;99.90
11107;DHT22;5607;48.302;14.294;2023-04-03T01:50:36;7.10;99.90
11107;DHT22;5607;48.302;14.294;2023-04-03T01:53:22;6.90;99.90
11107;DHT22;5607;48.302;14.294;2023-04-03T01:56:09;7.00;99.90
11107;DHT22;5607;48.302;14.294;2023-04-03T01:58:56;6.90;99.90
11107;DHT22;5607;48.302;14.294;2023-04-03T02:01:42;7.00;99.90
11107;DHT22;5607;48.302;14.294;2023-04-03T02:04:31;7.00;99.90
11107;DHT22;5607;48.302;14.294;2023-04-03T02:07:17;6.90;99.90
11107;DHT22;5607;48.302;14.294;2023-04-03T02:10:04;6.80;99.90
11107;DHT22;5607;48.302;14.294;2023-04-03T02:12:51;6.80;99.90
11107;DHT22;5607;48.302;14.294;2023-04-03T02:15:38;6.80;99.90
11107;DHT22;5607;48.302;14.294;2023-04-03T02:18:25;6.80;99.90
11107;DHT22;5607;48.302;14.294;2023-04-03T02:21:12;6.80;99.90
11107;DHT22;5607;48.302;14.294;2023-04-03T02:23:58;6.80;99.90
11107;DHT22;5607;48.302;14.294;2023-04-03T02:26:45;6.80;99.90
11107;DHT22;5607;48.302;14.294;2023-04-03T02:29:32;6.70;99.90
11107;DHT22;5607;48.302;14.294;2023-04-03T02:32:20;6.60;99.90
11107;DHT22;5607;48.302;14.294;2023-04-03T02:35:06;6.50;99.90
11107;DHT22;5607;48.302;14.294;2023-04-03T02:37:53;6.40;99.90
11107;DHT22;5607;48.302;14.294;2023-04-03T02:40:40;6.50;99.90
11107;DHT22;5607;48.302;14.294;2023-04-03T02:43:26;6.70;99.90
11107;DHT22;5607;48.302;14.294;2023-04-03T02:46:13;6.80;99.90
11107;DHT22;5607;48.302;14.294;2023-04-03T02:49:01;6.80;99.90
11107;DHT22;5607;48.302;14.294;2023-04-03T02:51:48;6.90;99.90
11107;DHT22;5607;48.302;14.294;2023-04-03T02:54:35;6.90;99.90
11107;DHT22;5607;48.302;14.294;2023-04-03T02:57:21;7.00;99.90
11107;DHT22;5607;48.302;14.294;2023-04-03T03:00:08;7.00;99.90
11107;DHT22;5607;48.302;14.294;2023-04-03T03:02:56;7.00;99.90
11107;DHT22;5607;48.302;14.294;2023-04-03T03:05:42;7.00;99.90
11107;DHT22;5607;48.302;14.294;2023-04-03T03:08:29;7.00;99.90
11107;DHT22;5607;48.302;14.294;2023-04-03T03:11:15;6.90;99.90
11107;DHT22;5607;48.302;14.294;2023-04-03T03:14:02;6.80;99.90
11107;DHT22;5607;48.302;14.294;2023-04-03T03:16:49;6.60;99.90
11107;DHT22;5607;48.302;14.294;2023-04-03T03:19:35;6.50;99.90
11107;DHT22;5607;48.302;14.294;2023-04-03T03:22:22;6.60;99.90
11107;DHT22;5607;48.302;14.294;2023-04-03T03:25:08;6.60;99.90
11107;DHT22;5607;48.302;14.294;2023-04-03T03:27:55;6.60;99.90
11107;DHT22;5607;48.302;14.294;2023-04-03T03:30:42;6.60;99.90
11107;DHT22;5607;48.302;14.294;2023-04-03T03:33:29;6.40;99.90
11107;DHT22;5607;48.302;14.294;2023-04-03T03:36:16;6.40;99.90
11107;DHT22;5607;48.302;14.294;2023-04-03T03:39:03;6.40;99.90
11107;DHT22;5607;48.302;14.294;2023-04-03T03:41:49;6.40;99.90
11107;DHT22;5607;48.302;14.294;2023-04-03T03:44:36;6.50;99.90
11107;DHT22;5607;48.302;14.294;2023-04-03T03:47:22;6.60;99.90
11107;DHT22;5607;48.302;14.294;2023-04-03T03:50:09;6.60;99.90
11107;DHT22;5607;48.302;14.294;2023-04-03T03:52:56;6.40;99.90
11107;DHT22;5607;48.302;14.294;2023-04-03T03:55:42;6.40;99.90
11107;DHT22;5607;48.302;14.294;2023-04-03T03:58:29;6.30;99.90
11107;DHT22;5607;48.302;14.294;2023-04-03T04:01:16;6.30;99.90
11107;DHT22;5607;48.302;14.294;2023-04-03T04:04:03;6.10;99.90
11107;DHT22;5607;48.302;14.294;2023-04-03T04:06:49;6.10;99.90
11107;DHT22;5607;48.302;14.294;2023-04-03T04:09:36;6.00;99.90
11107;DHT22;5607;48.302;14.294;2023-04-03T04:12:23;6.00;99.90
11107;DHT22;5607;48.302;14.294;2023-04-03T04:15:09;5.90;99.90
11107;DHT22;5607;48.302;14.294;2023-04-03T04:17:56;5.80;99.90
11107;DHT22;5607;48.302;14.294;2023-04-03T04:20:44;5.80;99.90
11107;DHT22;5607;48.302;14.294;2023-04-03T04:23:31;5.80;99.90
11107;DHT22;5607;48.302;14.294;2023-04-03T04:26:18;5.80;99.90
11107;DHT22;5607;48.302;14.294;2023-04-03T04:29:04;5.90;99.90
11107;DHT22;5607;48.302;14.294;2023-04-03T04:31:51;5.90;99.90
11107;DHT22;5607;48.302;14.294;2023-04-03T04:34:37;5.90;99.90
11107;DHT22;5607;48.302;14.294;2023-04-03T04:37:24;5.90;99.90
11107;DHT22;5607;48.302;14.294;2023-04-03T04:40:11;6.00;99.90
11107;DHT22;5607;48.302;14.294;2023-04-03T04:42:57;6.00;99.90
11107;DHT22;5607;48.302;14.294;2023-04-03T04:45:44;6.10;99.90
11107;DHT22;5607;48.302;14.294;2023-04-03T04:48:31;6.30;99.90
11107;DHT22;5607;48.302;14.294;2023-04-03T04:51:18;6.30;99.90
11107;DHT22;5607;48.302;14.294;2023-04-03T04:54:04;6.30;99.90
11107;DHT22;5607;48.302;14.294;2023-04-03T04:56:51;6.30;99.90
11107;DHT22;5607;48.302;14.294;2023-04-03T04:59:38;6.20;99.90
11107;DHT22;5607;48.302;14.294;2023-04-03T05:02:26;6.20;99.90
11107;DHT22;5607;48.302;14.294;2023-04-03T05:05:12;6.20;99.90
11107;DHT22;5607;48.302;14.294;2023-04-03T05:07:59;6.10;99.90
11107;DHT22;5607;48.302;14.294;2023-04-03T05:10:46;6.00;99.90
11107;DHT22;5607;48.302;14.294;2023-04-03T05:13:32;6.10;99.90
11107;DHT22;5607;48.302;14.294;2023-04-03T05:16:19;6.20;99.90
11107;DHT22;5607;48.302;14.294;2023-04-03T05:19:06;6.40;99.90
11107;DHT22;5607;48.302;14.294;2023-04-03T05:21:52;6.40;99.90
11107;DHT22;5607;48.302;14.294;2023-04-03T05:24:39;6.40;99.90
11107;DHT22;5607;48.302;14.294;2023-04-03T05:27:25;6.40;99.90
11107;DHT22;5607;48.302;14.294;2023-04-03T05:30:14;6.30;99.90
11107;DHT22;5607;48.302;14.294;2023-04-03T05:33:01;6.30;99.90
11107;DHT22;5607;48.302;14.294;2023-04-03T05:35:48;6.30;99.90
11107;DHT22;5607;48.302;14.294;2023-04-03T05:38:34;6.40;99.90
11107;DHT22;5607;48.302;14.294;2023-04-03T05:41:21;6.40;99.90
11107;DHT22;5607;48.302;14.294;2023-04-03T05:44:08;6.50;99.90
11107;DHT22;5607;48.302;14.294;2023-04-03T05:46:54;6.40;99.90
11107;DHT22;5607;48.302;14.294;2023-04-03T05:49:41;6.50;99.90
11107;DHT22;5607;48.302;14.294;2023-04-03T05:52:33;6.50;99.90
11107;DHT22;5607;48.302;14.294;2023-04-03T05:55:22;6.40;99.90
11107;DHT22;5607;48.302;14.294;2023-04-03T05:58:09;6.30;99.90
11107;DHT22;5607;48.302;14.294;2023-04-03T06:00:55;6.30;99.90
11107;DHT22;5607;48.302;14.294;2023-04-03T06:03:43;6.40;99.90
11107;DHT22;5607;48.302;14.294;2023-04-03T06:09:49;6.70;99.90
11107;DHT22;5607;48.302;14.294;2023-04-03T06:12:37;6.80;99.90
11107;DHT22;5607;48.302;14.294;2023-04-03T06:15:23;6.80;99.90
11107;DHT22;5607;48.302;14.294;2023-04-03T06:18:10;6.60;99.90
11107;DHT22;5607;48.302;14.294;2023-04-03T06:20:57;6.30;99.90
11107;DHT22;5607;48.302;14.294;2023-04-03T06:23:44;6.10;99.90
11107;DHT22;5607;48.302;14.294;2023-04-03T06:26:31;5.90;99.90
11107;DHT22;5607;48.302;14.294;2023-04-03T06:29:18;5.80;99.90
11107;DHT22;5607;48.302;14.294;2023-04-03T06:32:06;5.70;99.90
11107;DHT22;5607;48.302;14.294;2023-04-03T06:34:53;5.50;1.00
11107;DHT22;5607;48.302;14.294;2023-04-03T06:37:41;5.50;99.90
11107;DHT22;5607;48.302;14.294;2023-04-03T06:40:28;5.60;1.00
11107;DHT22;5607;48.302;14.294;2023-04-03T06:43:14;5.80;1.00
11107;DHT22;5607;48.302;14.294;2023-04-03T06:46:01;5.90;1.00
11107;DHT22;5607;48.302;14.294;2023-04-03T06:48:48;6.10;1.00
11107;DHT22;5607;48.302;14.294;2023-04-03T06:51:36;6.20;1.00
11107;DHT22;5607;48.302;14.294;2023-04-03T06:54:23;6.40;1.00
11107;DHT22;5607;48.302;14.294;2023-04-03T06:57:09;6.60;1.00
11107;DHT22;5607;48.302;14.294;2023-04-03T06:59:56;6.70;1.00
11107;DHT22;5607;48.302;14.294;2023-04-03T07:02:42;6.80;99.90
11107;DHT22;5607;48.302;14.294;2023-04-03T07:05:29;6.90;99.90
11107;DHT22;5607;48.302;14.294;2023-04-03T07:08:16;6.80;99.90
11107;DHT22;5607;48.302;14.294;2023-04-03T07:11:03;6.70;99.90
11107;DHT22;5607;48.302;14.294;2023-04-03T07:13:51;6.70;99.90
11107;DHT22;5607;48.302;14.294;2023-04-03T07:16:37;6.60;99.90
11107;DHT22;5607;48.302;14.294;2023-04-03T07:19:24;6.40;99.90
11107;DHT22;5607;48.302;14.294;2023-04-03T07:22:14;6.20;1.00
11107;DHT22;5607;48.302;14.294;2023-04-03T07:25:00;5.90;1.00
11107;DHT22;5607;48.302;14.294;2023-04-03T07:27:47;5.60;1.00
11107;DHT22;5607;48.302;14.294;2023-04-03T07:30:33;5.50;1.00
11107;DHT22;5607;48.302;14.294;2023-04-03T07:33:21;5.50;1.00
11107;DHT22;5607;48.302;14.294;2023-04-03T07:36:09;5.20;1.00
11107;DHT22;5607;48.302;14.294;2023-04-03T07:38:59;5.10;1.00
11107;DHT22;5607;48.302;14.294;2023-04-03T07:41:45;4.90;1.00
11107;DHT22;5607;48.302;14.294;2023-04-03T07:44:32;4.90;1.00
11107;DHT22;5607;48.302;14.294;2023-04-03T07:47:18;5.00;1.00
11107;DHT22;5607;48.302;14.294;2023-04-03T07:50:06;5.20;1.00
11107;DHT22;5607;48.302;14.294;2023-04-03T07:52:55;5.30;1.00
11107;DHT22;5607;48.302;14.294;2023-04-03T07:55:46;5.50;1.00
11107;DHT22;5607;48.302;14.294;2023-04-03T07:58:33;5.70;1.00
11107;DHT22;5607;48.302;14.294;2023-04-03T08:01:20;6.10;1.00
11107;DHT22;5607;48.302;14.294;2023-04-03T08:04:06;6.20;1.00
11107;DHT22;5607;48.302;14.294;2023-04-03T08:06:53;6.60;1.00
11107;DHT22;5607;48.302;14.294;2023-04-03T08:09:39;6.80;1.00
11107;DHT22;5607;48.302;14.294;2023-04-03T08:12:26;6.90;99.90
11107;DHT22;5607;48.302;14.294;2023-04-03T08:15:14;6.90;99.90
11107;DHT22;5607;48.302;14.294;2023-04-03T08:18:01;7.10;99.90
11107;DHT22;5607;48.302;14.294;2023-04-03T08:20:48;7.00;99.90
11107;DHT22;5607;48.302;14.294;2023-04-03T08:23:35;7.10;99.90
11107;DHT22;5607;48.302;14.294;2023-04-03T08:26:22;7.30;99.90
11107;DHT22;5607;48.302;14.294;2023-04-03T08:29:09;7.30;99.90
11107;DHT22;5607;48.302;14.294;2023-04-03T08:31:55;7.30;99.90
11107;DHT22;5607;48.302;14.294;2023-04-03T08:34:42;7.20;99.90
11107;DHT22;5607;48.302;14.294;2023-04-03T08:37:28;7.30;99.90
11107;DHT22;5607;48.302;14.294;2023-04-03T08:40:16;7.40;99.90
11107;DHT22;5607;48.302;14.294;2023-04-03T08:46:12;7.70;99.90
11107;DHT22;5607;48.302;14.294;2023-04-03T08:49:01;7.70;99.90
11107;DHT22;5607;48.302;14.294;2023-04-03T08:51:48;7.70;99.90
11107;DHT22;5607;48.302;14.294;2023-04-03T08:54:48;7.70;99.90
11107;DHT22;5607;48.302;14.294;2023-04-03T08:57:41;7.50;99.90
11107;DHT22;5607;48.302;14.294;2023-04-03T09:00:47;7.40;99.90
11107;DHT22;5607;48.302;14.294;2023-04-03T09:03:40;7.40;99.90
11107;DHT22;5607;48.302;14.294;2023-04-03T09:06:29;7.30;99.90
11107;DHT22;5607;48.302;14.294;2023-04-03T09:12:24;7.40;99.90
11107;DHT22;5607;48.302;14.294;2023-04-03T09:15:23;7.50;99.90
11107;DHT22;5607;48.302;14.294;2023-04-03T09:21:26;7.40;99.90
11107;DHT22;5607;48.302;14.294;2023-04-03T09:24:18;7.50;99.90
11107;DHT22;5607;48.302;14.294;2023-04-03T09:27:10;7.80;99.90
11107;DHT22;5607;48.302;14.294;2023-04-03T09:29:59;8.00;99.90
11107;DHT22;5607;48.302;14.294;2023-04-03T09:32:46;8.30;99.90
11107;DHT22;5607;48.302;14.294;2023-04-03T09:35:36;8.50;99.90
11107;DHT22;5607;48.302;14.294;2023-04-03T09:38:23;8.70;99.90
11107;DHT22;5607;48.302;14.294;2023-04-03T09:41:16;8.80;99.90
11107;DHT22;5607;48.302;14.294;2023-04-03T09:44:17;8.60;99.90
11107;DHT22;5607;48.302;14.294;2023-04-03T09:47:23;8.30;99.90
11107;DHT22;5607;48.302;14.294;2023-04-03T09:53:06;8.40;99.90
11107;DHT22;5607;48.302;14.294;2023-04-03T10:02:00;8.40;99.90
11107;DHT22;5607;48.302;14.294;2023-04-03T10:04:49;8.40;99.90
11107;DHT22;5607;48.302;14.294;2023-04-03T10:07:36;8.40;99.90
11107;DHT22;5607;48.302;14.294;2023-04-03T10:10:24;8.60;99.90
11107;DHT22;5607;48.302;14.294;2023-04-03T10:13:12;8.70;99.90
11107;DHT22;5607;48.302;14.294;2023-04-03T10:16:11;8.90;99.90
11107;DHT22;5607;48.302;14.294;2023-04-03T10:19:17;8.60;99.90
11107;DHT22;5607;48.302;14.294;2023-04-03T10:28:43;8.50;99.90
11107;DHT22;5607;48.302;14.294;2023-04-03T10:31:41;8.90;99.90
11107;DHT22;5607;48.302;14.294;2023-04-03T10:34:39;9.10;99.90
11107;DHT22;5607;48.302;14.294;2023-04-03T10:37:37;9.40;99.90
11107;DHT22;5607;48.302;14.294;2023-04-03T10:46:53;9.50;99.90
11107;DHT22;5607;48.302;14.294;2023-04-03T10:50:07;9.70;99.90
11107;DHT22;5607;48.302;14.294;2023-04-03T11:08:44;8.50;99.90
11107;DHT22;5607;48.302;14.294;2023-04-03T11:11:34;8.50;99.90
11107;DHT22;5607;48.302;14.294;2023-04-03T11:14:34;8.30;99.90
11107;DHT22;5607;48.302;14.294;2023-04-03T11:17:43;8.00;99.90
11107;DHT22;5607;48.302;14.294;2023-04-03T11:20:36;7.80;99.90
11107;DHT22;5607;48.302;14.294;2023-04-03T11:23:26;7.50;99.90
11107;DHT22;5607;48.302;14.294;2023-04-03T11:26:18;7.60;99.90
11107;DHT22;5607;48.302;14.294;2023-04-03T11:29:08;7.50;99.90
11107;DHT22;5607;48.302;14.294;2023-04-03T11:34:53;7.90;99.90
11107;DHT22;5607;48.302;14.294;2023-04-03T11:37:45;8.10;99.90
11107;DHT22;5607;48.302;14.294;2023-04-03T11:40:36;8.40;99.90
11107;DHT22;5607;48.302;14.294;2023-04-03T11:43:25;8.40;99.90
11107;DHT22;5607;48.302;14.294;2023-04-03T11:46:15;8.30;99.90
11107;DHT22;5607;48.302;14.294;2023-04-03T11:49:04;8.30;99.90
11107;DHT22;5607;48.302;14.294;2023-04-03T11:52:11;8.30;99.90
11107;DHT22;5607;48.302;14.294;2023-04-03T11:54:58;8.40;99.90
11107;DHT22;5607;48.302;14.294;2023-04-03T11:57:45;8.20;99.90
11107;DHT22;5607;48.302;14.294;2023-04-03T12:09:35;7.80;99.90
11107;DHT22;5607;48.302;14.294;2023-04-03T12:12:42;7.70;99.90
11107;DHT22;5607;48.302;14.294;2023-04-03T12:15:50;7.90;99.90
11107;DHT22;5607;48.302;14.294;2023-04-03T12:18:40;8.20;99.90
11107;DHT22;5607;48.302;14.294;2023-04-03T12:30:21;8.30;99.90
11107;DHT22;5607;48.302;14.294;2023-04-03T12:36:13;9.10;99.90
11107;DHT22;5607;48.302;14.294;2023-04-03T12:39:18;9.30;99.90
11107;DHT22;5607;48.302;14.294;2023-04-03T12:42:14;9.00;99.90
11107;DHT22;5607;48.302;14.294;2023-04-03T12:45:19;9.30;99.90
11107;DHT22;5607;48.302;14.294;2023-04-03T12:48:08;9.40;99.90
11107;DHT22;5607;48.302;14.294;2023-04-03T12:51:01;9.30;99.90
11107;DHT22;5607;48.302;14.294;2023-04-03T12:53:49;9.20;99.90
11107;DHT22;5607;48.302;14.294;2023-04-03T12:56:39;9.40;99.90
11107;DHT22;5607;48.302;14.294;2023-04-03T12:59:26;9.50;99.90
11107;DHT22;5607;48.302;14.294;2023-04-03T13:02:32;9.70;99.90
11107;DHT22;5607;48.302;14.294;2023-04-03T13:05:21;9.90;99.90
11107;DHT22;5607;48.302;14.294;2023-04-03T13:08:10;9.70;99.90
11107;DHT22;5607;48.302;14.294;2023-04-03T13:11:09;9.80;99.90
11107;DHT22;5607;48.302;14.294;2023-04-03T13:14:01;9.70;99.90
11107;DHT22;5607;48.302;14.294;2023-04-03T13:16:55;9.70;99.90
11107;DHT22;5607;48.302;14.294;2023-04-03T13:19:44;9.80;99.90
11107;DHT22;5607;48.302;14.294;2023-04-03T13:22:35;9.70;99.90
11107;DHT22;5607;48.302;14.294;2023-04-03T13:25:30;9.50;99.90
11107;DHT22;5607;48.302;14.294;2023-04-03T13:28:20;9.60;99.90
11107;DHT22;5607;48.302;14.294;2023-04-03T13:34:05;9.80;99.90
11107;DHT22;5607;48.302;14.294;2023-04-03T13:37:30;9.60;99.90
11107;DHT22;5607;48.302;14.294;2023-04-03T13:40:19;10.20;99.90
11107;DHT22;5607;48.302;14.294;2023-04-03T13:43:14;10.80;99.90
11107;DHT22;5607;48.302;14.294;2023-04-03T13:48:57;10.40;99.90
11107;DHT22;5607;48.302;14.294;2023-04-03T13:55:24;10.00;99.90
11107;DHT22;5607;48.302;14.294;2023-04-03T13:58:21;9.90;99.90
11107;DHT22;5607;48.302;14.294;2023-04-03T14:01:10;9.90;99.90
11107;DHT22;5607;48.302;14.294;2023-04-03T14:03:59;9.90;99.90
11107;DHT22;5607;48.302;14.294;2023-04-03T14:06:47;9.50;99.90
11107;DHT22;5607;48.302;14.294;2023-04-03T14:09:34;9.60;99.90
11107;DHT22;5607;48.302;14.294;2023-04-03T14:15:21;8.90;99.90
11107;DHT22;5607;48.302;14.294;2023-04-03T14:18:13;9.00;99.90
11107;DHT22;5607;48.302;14.294;2023-04-03T14:21:01;9.00;99.90
11107;DHT22;5607;48.302;14.294;2023-04-03T14:23:48;8.90;99.90
11107;DHT22;5607;48.302;14.294;2023-04-03T14:26:35;8.70;99.90
11107;DHT22;5607;48.302;14.294;2023-04-03T14:29:22;8.80;99.90
11107;DHT22;5607;48.302;14.294;2023-04-03T14:32:11;8.90;99.90
11107;DHT22;5607;48.302;14.294;2023-04-03T14:34:59;8.70;99.90
11107;DHT22;5607;48.302;14.294;2023-04-03T14:37:46;8.70;99.90
11107;DHT22;5607;48.302;14.294;2023-04-03T14:40:34;8.70;99.90
11107;DHT22;5607;48.302;14.294;2023-04-03T14:43:20;8.50;99.90
11107;DHT22;5607;48.302;14.294;2023-04-03T14:46:11;8.70;99.90
11107;DHT22;5607;48.302;14.294;2023-04-03T14:49:00;9.30;99.90
11107;DHT22;5607;48.302;14.294;2023-04-03T14:51:47;9.90;99.90
11107;DHT22;5607;48.302;14.294;2023-04-03T14:54:34;9.60;99.90
11107;DHT22;5607;48.302;14.294;2023-04-03T14:57:21;9.10;99.90
11107;DHT22;5607;48.302;14.294;2023-04-03T15:00:12;8.80;99.90
11107;DHT22;5607;48.302;14.294;2023-04-03T15:03:01;8.80;99.90
11107;DHT22;5607;48.302;14.294;2023-04-03T15:05:48;8.40;99.90
11107;DHT22;5607;48.302;14.294;2023-04-03T15:08:35;8.30;99.90
11107;DHT22;5607;48.302;14.294;2023-04-03T15:11:22;8.40;99.90
11107;DHT22;5607;48.302;14.294;2023-04-03T15:14:09;8.60;99.90
11107;DHT22;5607;48.302;14.294;2023-04-03T15:16:56;8.60;99.90
11107;DHT22;5607;48.302;14.294;2023-04-03T15:19:43;8.50;99.90
11107;DHT22;5607;48.302;14.294;2023-04-03T15:22:30;8.30;99.90
11107;DHT22;5607;48.302;14.294;2023-04-03T15:25:18;8.10;99.90
11107;DHT22;5607;48.302;14.294;2023-04-03T15:28:05;8.00;99.90
11107;DHT22;5607;48.302;14.294;2023-04-03T15:30:51;8.10;99.90
11107;DHT22;5607;48.302;14.294;2023-04-03T15:33:38;7.90;99.90
11107;DHT22;5607;48.302;14.294;2023-04-03T15:36:25;7.80;99.90
11107;DHT22;5607;48.302;14.294;2023-04-03T15:39:11;7.50;99.90
11107;DHT22;5607;48.302;14.294;2023-04-03T15:41:58;7.40;99.90
11107;DHT22;5607;48.302;14.294;2023-04-03T15:44:54;7.20;99.90
11107;DHT22;5607;48.302;14.294;2023-04-03T15:47:41;7.10;99.90
11107;DHT22;5607;48.302;14.294;2023-04-03T15:50:27;7.00;99.90
11107;DHT22;5607;48.302;14.294;2023-04-03T15:53:14;7.00;99.90
11107;DHT22;5607;48.302;14.294;2023-04-03T15:56:01;6.90;99.90
11107;DHT22;5607;48.302;14.294;2023-04-03T15:58:47;6.80;99.90
11107;DHT22;5607;48.302;14.294;2023-04-03T16:01:34;6.70;99.90
11107;DHT22;5607;48.302;14.294;2023-04-03T16:04:22;6.50;99.90
11107;DHT22;5607;48.302;14.294;2023-04-03T16:07:08;6.50;99.90
11107;DHT22;5607;48.302;14.294;2023-04-03T16:09:55;6.50;99.90
11107;DHT22;5607;48.302;14.294;2023-04-03T16:12:42;6.50;99.90
11107;DHT22;5607;48.302;14.294;2023-04-03T16:15:29;6.70;99.90
11107;DHT22;5607;48.302;14.294;2023-04-03T16:18:16;6.80;99.90
11107;DHT22;5607;48.302;14.294;2023-04-03T16:21:05;6.80;99.90
11107;DHT22;5607;48.302;14.294;2023-04-03T16:23:55;6.70;99.90
11107;DHT22;5607;48.302;14.294;2023-04-03T16:26:43;6.80;99.90
11107;DHT22;5607;48.302;14.294;2023-04-03T16:29:30;6.80;99.90
11107;DHT22;5607;48.302;14.294;2023-04-03T16:32:17;6.70;99.90
11107;DHT22;5607;48.302;14.294;2023-04-03T16:35:03;6.70;99.90
11107;DHT22;5607;48.302;14.294;2023-04-03T16:37:51;6.80;99.90
11107;DHT22;5607;48.302;14.294;2023-04-03T16:40:38;6.50;99.90
11107;DHT22;5607;48.302;14.294;2023-04-03T16:43:25;6.20;99.90
11107;DHT22;5607;48.302;14.294;2023-04-03T16:46:13;5.80;99.90
11107;DHT22;5607;48.302;14.294;2023-04-03T16:48:59;5.80;99.90
11107;DHT22;5607;48.302;14.294;2023-04-03T16:51:47;6.00;99.90
11107;DHT22;5607;48.302;14.294;2023-04-03T16:54:34;6.00;99.90
11107;DHT22;5607;48.302;14.294;2023-04-03T16:57:22;5.90;99.90
11107;DHT22;5607;48.302;14.294;2023-04-03T17:00:10;6.00;99.90
11107;DHT22;5607;48.302;14.294;2023-04-03T17:02:57;6.20;99.90
11107;DHT22;5607;48.302;14.294;2023-04-03T17:05:46;6.20;99.90
11107;DHT22;5607;48.302;14.294;2023-04-03T17:08:34;6.20;99.90
11107;DHT22;5607;48.302;14.294;2023-04-03T17:11:22;6.10;99.90
11107;DHT22;5607;48.302;14.294;2023-04-03T17:14:08;6.10;99.90
11107;DHT22;5607;48.302;14.294;2023-04-03T17:16:56;6.00;99.90
11107;DHT22;5607;48.302;14.294;2023-04-03T17:19:42;5.90;99.90
11107;DHT22;5607;48.302;14.294;2023-04-03T17:22:32;5.90;99.90
11107;DHT22;5607;48.302;14.294;2023-04-03T17:25:19;5.90;99.90
11107;DHT22;5607;48.302;14.294;2023-04-03T17:28:06;5.90;99.90
11107;DHT22;5607;48.302;14.294;2023-04-03T17:30:55;5.80;99.90
11107;DHT22;5607;48.302;14.294;2023-04-03T17:33:44;5.70;99.90
11107;DHT22;5607;48.302;14.294;2023-04-03T17:36:31;5.70;99.90
11107;DHT22;5607;48.302;14.294;2023-04-03T17:39:19;5.60;99.90
11107;DHT22;5607;48.302;14.294;2023-04-03T17:42:06;5.60;99.90
11107;DHT22;5607;48.302;14.294;2023-04-03T17:44:52;5.50;99.90
11107;DHT22;5607;48.302;14.294;2023-04-03T17:47:39;5.40;99.90
11107;DHT22;5607;48.302;14.294;2023-04-03T17:50:26;5.40;99.90
11107;DHT22;5607;48.302;14.294;2023-04-03T17:53:13;5.30;99.90
11107;DHT22;5607;48.302;14.294;2023-04-03T17:56:10;5.40;99.90
11107;DHT22;5607;48.302;14.294;2023-04-03T17:58:58;5.40;99.90
11107;DHT22;5607;48.302;14.294;2023-04-03T18:01:46;5.30;99.90
11107;DHT22;5607;48.302;14.294;2023-04-03T18:04:32;5.30;99.90
11107;DHT22;5607;48.302;14.294;2023-04-03T18:07:19;5.30;99.90
11107;DHT22;5607;48.302;14.294;2023-04-03T18:10:06;5.20;99.90
11107;DHT22;5607;48.302;14.294;2023-04-03T18:12:54;5.10;99.90
11107;DHT22;5607;48.302;14.294;2023-04-03T18:15:42;4.90;99.90
11107;DHT22;5607;48.302;14.294;2023-04-03T18:18:30;4.90;99.90
11107;DHT22;5607;48.302;14.294;2023-04-03T18:21:17;4.80;99.90
11107;DHT22;5607;48.302;14.294;2023-04-03T18:24:04;4.90;99.90
11107;DHT22;5607;48.302;14.294;2023-04-03T18:27:01;4.90;99.90
11107;DHT22;5607;48.302;14.294;2023-04-03T18:29:57;4.90;99.90
11107;DHT22;5607;48.302;14.294;2023-04-03T18:32:48;4.80;99.90
11107;DHT22;5607;48.302;14.294;2023-04-03T18:35:36;4.70;99.90
11107;DHT22;5607;48.302;14.294;2023-04-03T18:38:23;4.70;99.90
11107;DHT22;5607;48.302;14.294;2023-04-03T18:41:09;4.70;99.90
11107;DHT22;5607;48.302;14.294;2023-04-03T18:43:57;4.70;99.90
11107;DHT22;5607;48.302;14.294;2023-04-03T18:46:46;4.60;99.90
11107;DHT22;5607;48.302;14.294;2023-04-03T18:49:33;4.60;99.90
11107;DHT22;5607;48.302;14.294;2023-04-03T18:52:23;4.60;99.90
11107;DHT22;5607;48.302;14.294;2023-04-03T18:55:10;4.60;99.90
11107;DHT22;5607;48.302;14.294;2023-04-03T18:57:58;4.60;99.90
11107;DHT22;5607;48.302;14.294;2023-04-03T19:00:45;4.70;99.90
11107;DHT22;5607;48.302;14.294;2023-04-03T19:03:32;4.60;99.90
11107;DHT22;5607;48.302;14.294;2023-04-03T19:06:21;4.70;99.90
11107;DHT22;5607;48.302;14.294;2023-04-03T19:09:08;4.70;99.90
11107;DHT22;5607;48.302;14.294;2023-04-03T19:11:55;4.70;99.90
11107;DHT22;5607;48.302;14.294;2023-04-03T19:14:41;4.70;99.90
11107;DHT22;5607;48.302;14.294;2023-04-03T19:17:28;4.70;99.90
11107;DHT22;5607;48.302;14.294;2023-04-03T19:20:15;4.80;99.90
11107;DHT22;5607;48.302;14.294;2023-04-03T19:23:01;4.80;99.90
11107;DHT22;5607;48.302;14.294;2023-04-03T19:26:02;4.70;99.90
11107;DHT22;5607;48.302;14.294;2023-04-03T19:28:51;4.80;99.90
11107;DHT22;5607;48.302;14.294;2023-04-03T19:31:38;4.80;99.90
11107;DHT22;5607;48.302;14.294;2023-04-03T19:34:24;4.90;99.90
11107;DHT22;5607;48.302;14.294;2023-04-03T19:37:11;5.00;99.90
11107;DHT22;5607;48.302;14.294;2023-04-03T19:40:00;5.10;99.90